sensor_id;sensor_type;location;lat;lon;timestamp;P1;durP1;ratioP1;P2;durP2;ratioP2
49942;SDS011;36011;53.362;58.948;2022-12-07T00:02:19;32.30;;;12.82;;
49942;SDS011;36011;53.362;58.948;2022-12-07T00:05:23;32.40;;;13.93;;
49942;SDS011;36011;53.362;58.948;2022-12-07T00:08:24;30.48;;;12.85;;
49942;SDS011;36011;53.362;58.948;2022-12-07T00:11:26;41.40;;;14.00;;
49942;SDS011;36011;53.362;58.948;2022-12-07T00:14:30;30.25;;;12.77;;
49942;SDS011;36011;53.362;58.948;2022-12-07T00:17:36;35.80;;;14.55;;
49942;SDS011;36011;53.362;58.948;2022-12-07T00:20:37;23.45;;;12.90;;
49942;SDS011;36011;53.362;58.948;2022-12-07T00:23:39;28.15;;;14.40;;
49942;SDS011;36011;53.362;58.948;2022-12-07T00:26:41;27.45;;;13.55;;
49942;SDS011;36011;53.362;58.948;2022-12-07T00:29:47;36.17;;;15.80;;
49942;SDS011;36011;53.362;58.948;2022-12-07T00:32:50;23.70;;;10.90;;
49942;SDS011;36011;53.362;58.948;2022-12-07T00:35:55;28.75;;;14.68;;
49942;SDS011;36011;53.362;58.948;2022-12-07T00:39:00;27.90;;;13.98;;
49942;SDS011;36011;53.362;58.948;2022-12-07T00:42:02;32.58;;;15.13;;
49942;SDS011;36011;53.362;58.948;2022-12-07T00:45:04;27.75;;;12.85;;
49942;SDS011;36011;53.362;58.948;2022-12-07T00:48:06;31.85;;;16.85;;
49942;SDS011;36011;53.362;58.948;2022-12-07T00:51:07;23.00;;;10.10;;
49942;SDS011;36011;53.362;58.948;2022-12-07T00:57:11;24.15;;;8.82;;
49942;SDS011;36011;53.362;58.948;2022-12-07T01:00:14;55.28;;;37.90;;
49942;SDS011;36011;53.362;58.948;2022-12-07T01:03:18;26.75;;;12.95;;
49942;SDS011;36011;53.362;58.948;2022-12-07T01:06:20;35.55;;;15.38;;
49942;SDS011;36011;53.362;58.948;2022-12-07T01:09:22;32.67;;;13.82;;
49942;SDS011;36011;53.362;58.948;2022-12-07T01:12:26;29.80;;;13.27;;
49942;SDS011;36011;53.362;58.948;2022-12-07T01:15:30;36.97;;;13.50;;
49942;SDS011;36011;53.362;58.948;2022-12-07T01:18:32;31.35;;;11.75;;
49942;SDS011;36011;53.362;58.948;2022-12-07T01:21:35;26.23;;;11.82;;
49942;SDS011;36011;53.362;58.948;2022-12-07T01:24:39;28.70;;;11.25;;
49942;SDS011;36011;53.362;58.948;2022-12-07T01:27:42;27.52;;;12.70;;
49942;SDS011;36011;53.362;58.948;2022-12-07T01:30:54;23.58;;;12.80;;
49942;SDS011;36011;53.362;58.948;2022-12-07T01:34:05;28.10;;;13.15;;
49942;SDS011;36011;53.362;58.948;2022-12-07T01:37:48;16.70;;;9.50;;
49942;SDS011;36011;53.362;58.948;2022-12-07T01:40:55;23.00;;;11.80;;
49942;SDS011;36011;53.362;58.948;2022-12-07T01:47:26;18.73;;;10.43;;
49942;SDS011;36011;53.362;58.948;2022-12-07T01:50:30;24.40;;;10.52;;
49942;SDS011;36011;53.362;58.948;2022-12-07T01:53:33;27.30;;;11.83;;
49942;SDS011;36011;53.362;58.948;2022-12-07T01:56:39;19.35;;;10.75;;
49942;SDS011;36011;53.362;58.948;2022-12-07T01:59:43;25.50;;;11.15;;
49942;SDS011;36011;53.362;58.948;2022-12-07T02:02:55;35.45;;;13.75;;
49942;SDS011;36011;53.362;58.948;2022-12-07T02:06:10;27.10;;;12.52;;
49942;SDS011;36011;53.362;58.948;2022-12-07T02:09:15;37.78;;;14.63;;
49942;SDS011;36011;53.362;58.948;2022-12-07T02:12:17;31.52;;;15.93;;
49942;SDS011;36011;53.362;58.948;2022-12-07T02:32:31;39.88;;;16.00;;
49942;SDS011;36011;53.362;58.948;2022-12-07T02:35:55;40.83;;;18.80;;
49942;SDS011;36011;53.362;58.948;2022-12-07T02:39:16;40.58;;;15.90;;
49942;SDS011;36011;53.362;58.948;2022-12-07T02:42:25;55.80;;;18.17;;
49942;SDS011;36011;53.362;58.948;2022-12-07T02:45:35;45.83;;;21.83;;
49942;SDS011;36011;53.362;58.948;2022-12-07T02:48:39;57.55;;;22.80;;
49942;SDS011;36011;53.362;58.948;2022-12-07T02:51:44;73.18;;;26.55;;
49942;SDS011;36011;53.362;58.948;2022-12-07T02:54:47;53.47;;;21.80;;
49942;SDS011;36011;53.362;58.948;2022-12-07T03:07:59;46.85;;;19.10;;
49942;SDS011;36011;53.362;58.948;2022-12-07T03:11:34;43.75;;;16.42;;
49942;SDS011;36011;53.362;58.948;2022-12-07T03:14:47;41.10;;;17.13;;
49942;SDS011;36011;53.362;58.948;2022-12-07T03:17:54;47.08;;;16.20;;
49942;SDS011;36011;53.362;58.948;2022-12-07T03:21:00;42.78;;;17.05;;
49942;SDS011;36011;53.362;58.948;2022-12-07T03:24:17;43.95;;;14.85;;
49942;SDS011;36011;53.362;58.948;2022-12-07T03:30:30;23.38;;;8.82;;
49942;SDS011;36011;53.362;58.948;2022-12-07T03:33:42;36.00;;;11.82;;
49942;SDS011;36011;53.362;58.948;2022-12-07T03:36:51;26.58;;;13.10;;
49942;SDS011;36011;53.362;58.948;2022-12-07T03:43:09;41.85;;;16.73;;
49942;SDS011;36011;53.362;58.948;2022-12-07T03:49:58;26.85;;;12.10;;
49942;SDS011;36011;53.362;58.948;2022-12-07T03:53:30;30.60;;;15.50;;
49942;SDS011;36011;53.362;58.948;2022-12-07T03:56:37;53.22;;;23.15;;
49942;SDS011;36011;53.362;58.948;2022-12-07T03:59:40;63.33;;;26.08;;
49942;SDS011;36011;53.362;58.948;2022-12-07T04:02:46;111.85;;;37.85;;
49942;SDS011;36011;53.362;58.948;2022-12-07T04:05:48;79.85;;;31.58;;
49942;SDS011;36011;53.362;58.948;2022-12-07T04:08:49;109.78;;;38.83;;
49942;SDS011;36011;53.362;58.948;2022-12-07T04:11:51;77.65;;;29.88;;
49942;SDS011;36011;53.362;58.948;2022-12-07T04:14:57;74.75;;;28.38;;
49942;SDS011;36011;53.362;58.948;2022-12-07T04:18:01;80.70;;;27.42;;
49942;SDS011;36011;53.362;58.948;2022-12-07T04:21:02;60.90;;;24.70;;
49942;SDS011;36011;53.362;58.948;2022-12-07T04:24:08;75.43;;;30.65;;
49942;SDS011;36011;53.362;58.948;2022-12-07T04:27:09;91.68;;;30.55;;
49942;SDS011;36011;53.362;58.948;2022-12-07T04:30:14;55.63;;;25.70;;
49942;SDS011;36011;53.362;58.948;2022-12-07T04:33:15;72.85;;;24.00;;
49942;SDS011;36011;53.362;58.948;2022-12-07T04:36:16;57.15;;;26.00;;
49942;SDS011;36011;53.362;58.948;2022-12-07T04:39:24;70.20;;;24.67;;
49942;SDS011;36011;53.362;58.948;2022-12-07T04:42:30;59.35;;;21.90;;
49942;SDS011;36011;53.362;58.948;2022-12-07T04:45:34;54.50;;;21.33;;
49942;SDS011;36011;53.362;58.948;2022-12-07T04:48:36;47.35;;;21.20;;
49942;SDS011;36011;53.362;58.948;2022-12-07T04:51:39;51.88;;;20.30;;
49942;SDS011;36011;53.362;58.948;2022-12-07T04:54:41;56.78;;;21.95;;
49942;SDS011;36011;53.362;58.948;2022-12-07T04:57:45;55.22;;;25.08;;
49942;SDS011;36011;53.362;58.948;2022-12-07T05:00:47;73.65;;;27.70;;
49942;SDS011;36011;53.362;58.948;2022-12-07T05:03:54;76.78;;;28.33;;
49942;SDS011;36011;53.362;58.948;2022-12-07T05:06:55;65.18;;;27.10;;
49942;SDS011;36011;53.362;58.948;2022-12-07T05:09:56;75.55;;;28.70;;
49942;SDS011;36011;53.362;58.948;2022-12-07T05:13:00;78.70;;;30.50;;
49942;SDS011;36011;53.362;58.948;2022-12-07T05:16:05;70.72;;;31.35;;
49942;SDS011;36011;53.362;58.948;2022-12-07T05:19:07;95.65;;;34.35;;
49942;SDS011;36011;53.362;58.948;2022-12-07T05:22:13;96.47;;;35.65;;
49942;SDS011;36011;53.362;58.948;2022-12-07T05:25:16;90.57;;;31.65;;
49942;SDS011;36011;53.362;58.948;2022-12-07T05:28:17;79.53;;;32.17;;
49942;SDS011;36011;53.362;58.948;2022-12-07T05:31:20;87.35;;;30.42;;
49942;SDS011;36011;53.362;58.948;2022-12-07T05:34:24;56.47;;;26.33;;
49942;SDS011;36011;53.362;58.948;2022-12-07T05:37:26;80.50;;;31.80;;
49942;SDS011;36011;53.362;58.948;2022-12-07T05:40:29;82.22;;;32.90;;
49942;SDS011;36011;53.362;58.948;2022-12-07T05:43:33;73.78;;;28.45;;
49942;SDS011;36011;53.362;58.948;2022-12-07T05:46:35;75.57;;;27.95;;
49942;SDS011;36011;53.362;58.948;2022-12-07T05:49:39;82.75;;;32.25;;
49942;SDS011;36011;53.362;58.948;2022-12-07T05:52:44;78.60;;;32.63;;
49942;SDS011;36011;53.362;58.948;2022-12-07T05:55:51;91.63;;;36.60;;
49942;SDS011;36011;53.362;58.948;2022-12-07T05:58:55;86.88;;;36.58;;
49942;SDS011;36011;53.362;58.948;2022-12-07T06:02:15;95.35;;;37.40;;
49942;SDS011;36011;53.362;58.948;2022-12-07T06:05:18;90.30;;;34.72;;
49942;SDS011;36011;53.362;58.948;2022-12-07T06:08:19;97.72;;;36.85;;
49942;SDS011;36011;53.362;58.948;2022-12-07T06:11:21;104.78;;;37.35;;
49942;SDS011;36011;53.362;58.948;2022-12-07T06:14:41;99.18;;;37.05;;
49942;SDS011;36011;53.362;58.948;2022-12-07T06:17:51;95.05;;;36.85;;
49942;SDS011;36011;53.362;58.948;2022-12-07T06:20:54;105.70;;;36.10;;
49942;SDS011;36011;53.362;58.948;2022-12-07T06:23:58;91.35;;;37.67;;
49942;SDS011;36011;53.362;58.948;2022-12-07T06:27:00;87.05;;;36.97;;
49942;SDS011;36011;53.362;58.948;2022-12-07T06:30:04;101.45;;;39.53;;
49942;SDS011;36011;53.362;58.948;2022-12-07T06:36:10;86.95;;;36.88;;
49942;SDS011;36011;53.362;58.948;2022-12-07T06:39:12;107.82;;;41.67;;
49942;SDS011;36011;53.362;58.948;2022-12-07T06:42:16;117.38;;;44.72;;
49942;SDS011;36011;53.362;58.948;2022-12-07T06:45:17;134.25;;;46.33;;
49942;SDS011;36011;53.362;58.948;2022-12-07T06:48:22;132.40;;;52.47;;
49942;SDS011;36011;53.362;58.948;2022-12-07T06:51:29;148.55;;;51.65;;
49942;SDS011;36011;53.362;58.948;2022-12-07T06:54:36;136.23;;;55.13;;
49942;SDS011;36011;53.362;58.948;2022-12-07T06:57:38;141.77;;;54.85;;
49942;SDS011;36011;53.362;58.948;2022-12-07T07:00:39;136.63;;;57.22;;
49942;SDS011;36011;53.362;58.948;2022-12-07T07:03:41;147.55;;;59.42;;
49942;SDS011;36011;53.362;58.948;2022-12-07T07:06:45;149.30;;;61.10;;
49942;SDS011;36011;53.362;58.948;2022-12-07T07:09:47;177.93;;;70.93;;
49942;SDS011;36011;53.362;58.948;2022-12-07T07:12:52;244.68;;;95.72;;
49942;SDS011;36011;53.362;58.948;2022-12-07T07:15:54;216.43;;;90.78;;
49942;SDS011;36011;53.362;58.948;2022-12-07T07:18:55;199.48;;;78.47;;
49942;SDS011;36011;53.362;58.948;2022-12-07T07:22:00;150.27;;;64.03;;
49942;SDS011;36011;53.362;58.948;2022-12-07T07:25:03;136.90;;;55.83;;
49942;SDS011;36011;53.362;58.948;2022-12-07T07:28:05;142.48;;;56.88;;
49942;SDS011;36011;53.362;58.948;2022-12-07T07:31:06;131.05;;;53.60;;
49942;SDS011;36011;53.362;58.948;2022-12-07T07:34:09;121.85;;;49.95;;
49942;SDS011;36011;53.362;58.948;2022-12-07T07:37:11;102.65;;;43.47;;
49942;SDS011;36011;53.362;58.948;2022-12-07T07:40:13;97.20;;;41.67;;
49942;SDS011;36011;53.362;58.948;2022-12-07T07:43:16;90.90;;;41.08;;
49942;SDS011;36011;53.362;58.948;2022-12-07T07:46:24;89.78;;;40.15;;
49942;SDS011;36011;53.362;58.948;2022-12-07T07:49:26;89.90;;;40.65;;
49942;SDS011;36011;53.362;58.948;2022-12-07T07:52:32;78.05;;;38.58;;
49942;SDS011;36011;53.362;58.948;2022-12-07T07:55:35;73.57;;;36.53;;
49942;SDS011;36011;53.362;58.948;2022-12-07T07:58:43;71.28;;;34.88;;
49942;SDS011;36011;53.362;58.948;2022-12-07T08:01:46;64.03;;;37.17;;
49942;SDS011;36011;53.362;58.948;2022-12-07T08:04:54;75.65;;;38.13;;
49942;SDS011;36011;53.362;58.948;2022-12-07T08:07:59;77.32;;;38.90;;
49942;SDS011;36011;53.362;58.948;2022-12-07T08:11:08;81.45;;;40.80;;
49942;SDS011;36011;53.362;58.948;2022-12-07T08:14:14;84.90;;;44.58;;
49942;SDS011;36011;53.362;58.948;2022-12-07T08:17:18;95.63;;;48.17;;
49942;SDS011;36011;53.362;58.948;2022-12-07T08:20:22;83.78;;;45.03;;
49942;SDS011;36011;53.362;58.948;2022-12-07T08:23:26;93.05;;;44.67;;
49942;SDS011;36011;53.362;58.948;2022-12-07T08:26:31;91.93;;;45.38;;
49942;SDS011;36011;53.362;58.948;2022-12-07T08:29:35;132.48;;;61.80;;
49942;SDS011;36011;53.362;58.948;2022-12-07T08:32:39;141.32;;;64.00;;
49942;SDS011;36011;53.362;58.948;2022-12-07T08:35:41;133.32;;;62.53;;
49942;SDS011;36011;53.362;58.948;2022-12-07T08:38:44;111.88;;;57.13;;
49942;SDS011;36011;53.362;58.948;2022-12-07T08:41:50;108.88;;;53.28;;
49942;SDS011;36011;53.362;58.948;2022-12-07T08:44:54;100.78;;;49.75;;
49942;SDS011;36011;53.362;58.948;2022-12-07T08:48:05;93.40;;;45.22;;
49942;SDS011;36011;53.362;58.948;2022-12-07T08:51:11;70.68;;;38.08;;
49942;SDS011;36011;53.362;58.948;2022-12-07T08:54:16;68.47;;;34.58;;
49942;SDS011;36011;53.362;58.948;2022-12-07T08:57:19;59.53;;;31.10;;
49942;SDS011;36011;53.362;58.948;2022-12-07T09:00:21;63.00;;;30.67;;
49942;SDS011;36011;53.362;58.948;2022-12-07T09:03:25;60.10;;;28.80;;
49942;SDS011;36011;53.362;58.948;2022-12-07T09:06:33;62.25;;;33.13;;
49942;SDS011;36011;53.362;58.948;2022-12-07T09:09:37;63.80;;;35.70;;
49942;SDS011;36011;53.362;58.948;2022-12-07T09:12:41;68.35;;;36.42;;
49942;SDS011;36011;53.362;58.948;2022-12-07T09:15:45;73.55;;;37.88;;
49942;SDS011;36011;53.362;58.948;2022-12-07T09:18:52;69.90;;;36.90;;
49942;SDS011;36011;53.362;58.948;2022-12-07T09:21:58;69.47;;;36.33;;
49942;SDS011;36011;53.362;58.948;2022-12-07T09:25:00;70.45;;;36.47;;
49942;SDS011;36011;53.362;58.948;2022-12-07T09:28:04;73.82;;;39.13;;
49942;SDS011;36011;53.362;58.948;2022-12-07T09:31:08;79.72;;;40.30;;
49942;SDS011;36011;53.362;58.948;2022-12-07T09:34:14;76.68;;;41.28;;
49942;SDS011;36011;53.362;58.948;2022-12-07T09:37:16;69.78;;;37.55;;
49942;SDS011;36011;53.362;58.948;2022-12-07T09:40:19;75.30;;;38.85;;
49942;SDS011;36011;53.362;58.948;2022-12-07T09:43:23;74.00;;;40.13;;
49942;SDS011;36011;53.362;58.948;2022-12-07T09:46:36;75.35;;;38.60;;
49942;SDS011;36011;53.362;58.948;2022-12-07T09:49:43;77.22;;;38.42;;
49942;SDS011;36011;53.362;58.948;2022-12-07T09:52:45;69.95;;;38.97;;
49942;SDS011;36011;53.362;58.948;2022-12-07T09:55:51;75.68;;;38.35;;
49942;SDS011;36011;53.362;58.948;2022-12-07T09:59:16;75.50;;;39.13;;
49942;SDS011;36011;53.362;58.948;2022-12-07T10:02:23;75.43;;;39.10;;
49942;SDS011;36011;53.362;58.948;2022-12-07T10:05:46;79.53;;;42.03;;
49942;SDS011;36011;53.362;58.948;2022-12-07T10:08:50;79.00;;;41.15;;
49942;SDS011;36011;53.362;58.948;2022-12-07T10:12:10;82.30;;;42.00;;
49942;SDS011;36011;53.362;58.948;2022-12-07T10:15:18;100.90;;;44.53;;
49942;SDS011;36011;53.362;58.948;2022-12-07T10:21:31;95.32;;;42.42;;
49942;SDS011;36011;53.362;58.948;2022-12-07T10:24:35;100.82;;;42.42;;
49942;SDS011;36011;53.362;58.948;2022-12-07T10:27:43;91.32;;;42.22;;
49942;SDS011;36011;53.362;58.948;2022-12-07T10:34:26;99.40;;;43.70;;
49942;SDS011;36011;53.362;58.948;2022-12-07T10:37:35;108.70;;;45.42;;
49942;SDS011;36011;53.362;58.948;2022-12-07T10:40:44;115.75;;;50.97;;
49942;SDS011;36011;53.362;58.948;2022-12-07T10:43:48;103.68;;;43.53;;
49942;SDS011;36011;53.362;58.948;2022-12-07T10:56:42;90.20;;;35.38;;
49942;SDS011;36011;53.362;58.948;2022-12-07T11:16:26;89.45;;;35.65;;
49942;SDS011;36011;53.362;58.948;2022-12-07T11:23:21;60.03;;;22.48;;
49942;SDS011;36011;53.362;58.948;2022-12-07T11:26:30;54.08;;;22.67;;
49942;SDS011;36011;53.362;58.948;2022-12-07T11:36:33;54.70;;;22.27;;
49942;SDS011;36011;53.362;58.948;2022-12-07T11:39:44;106.40;;;39.17;;
49942;SDS011;36011;53.362;58.948;2022-12-07T11:42:58;110.38;;;42.13;;
49942;SDS011;36011;53.362;58.948;2022-12-07T11:46:03;109.43;;;42.05;;
49942;SDS011;36011;53.362;58.948;2022-12-07T11:49:13;107.97;;;41.63;;
49942;SDS011;36011;53.362;58.948;2022-12-07T11:52:30;97.72;;;33.60;;
49942;SDS011;36011;53.362;58.948;2022-12-07T11:59:08;65.25;;;26.70;;
49942;SDS011;36011;53.362;58.948;2022-12-07T12:02:15;64.90;;;26.27;;
49942;SDS011;36011;53.362;58.948;2022-12-07T12:05:24;66.88;;;25.77;;
49942;SDS011;36011;53.362;58.948;2022-12-07T12:08:28;68.47;;;27.33;;
49942;SDS011;36011;53.362;58.948;2022-12-07T12:21:29;54.80;;;23.25;;
49942;SDS011;36011;53.362;58.948;2022-12-07T12:24:33;55.22;;;25.38;;
49942;SDS011;36011;53.362;58.948;2022-12-07T12:27:39;60.70;;;27.67;;
49942;SDS011;36011;53.362;58.948;2022-12-07T12:30:43;70.20;;;29.40;;
49942;SDS011;36011;53.362;58.948;2022-12-07T12:33:46;65.43;;;30.35;;
49942;SDS011;36011;53.362;58.948;2022-12-07T12:36:54;115.35;;;41.17;;
49942;SDS011;36011;53.362;58.948;2022-12-07T12:53:25;97.75;;;42.55;;
49942;SDS011;36011;53.362;58.948;2022-12-07T12:56:50;89.68;;;38.22;;
49942;SDS011;36011;53.362;58.948;2022-12-07T13:03:00;98.78;;;39.92;;
49942;SDS011;36011;53.362;58.948;2022-12-07T13:06:28;91.07;;;38.53;;
49942;SDS011;36011;53.362;58.948;2022-12-07T13:09:36;80.88;;;36.35;;
49942;SDS011;36011;53.362;58.948;2022-12-07T13:12:43;79.35;;;32.72;;
49942;SDS011;36011;53.362;58.948;2022-12-07T13:15:48;91.60;;;37.90;;
49942;SDS011;36011;53.362;58.948;2022-12-07T13:18:53;103.25;;;42.60;;
49942;SDS011;36011;53.362;58.948;2022-12-07T13:21:55;111.50;;;45.00;;
49942;SDS011;36011;53.362;58.948;2022-12-07T13:31:31;122.47;;;44.70;;
49942;SDS011;36011;53.362;58.948;2022-12-07T13:34:52;176.00;;;65.20;;
49942;SDS011;36011;53.362;58.948;2022-12-07T13:37:53;209.52;;;83.90;;
49942;SDS011;36011;53.362;58.948;2022-12-07T13:44:14;241.52;;;93.25;;
49942;SDS011;36011;53.362;58.948;2022-12-07T13:50:30;240.27;;;98.75;;
49942;SDS011;36011;53.362;58.948;2022-12-07T13:53:32;227.90;;;96.00;;
49942;SDS011;36011;53.362;58.948;2022-12-07T13:56:34;215.77;;;90.50;;
49942;SDS011;36011;53.362;58.948;2022-12-07T13:59:40;185.60;;;74.00;;
49942;SDS011;36011;53.362;58.948;2022-12-07T14:02:57;190.07;;;76.60;;
49942;SDS011;36011;53.362;58.948;2022-12-07T14:06:10;163.05;;;72.47;;
49942;SDS011;36011;53.362;58.948;2022-12-07T14:09:21;143.07;;;62.72;;
49942;SDS011;36011;53.362;58.948;2022-12-07T14:12:28;187.43;;;65.03;;
49942;SDS011;36011;53.362;58.948;2022-12-07T14:18:41;172.60;;;60.83;;
49942;SDS011;36011;53.362;58.948;2022-12-07T14:21:42;203.38;;;72.90;;
49942;SDS011;36011;53.362;58.948;2022-12-07T14:24:46;201.50;;;68.78;;
49942;SDS011;36011;53.362;58.948;2022-12-07T14:27:51;165.25;;;56.33;;
49942;SDS011;36011;53.362;58.948;2022-12-07T14:30:59;166.73;;;60.15;;
49942;SDS011;36011;53.362;58.948;2022-12-07T14:34:00;175.23;;;61.50;;
49942;SDS011;36011;53.362;58.948;2022-12-07T14:37:02;169.23;;;55.42;;
49942;SDS011;36011;53.362;58.948;2022-12-07T14:40:12;128.38;;;46.35;;
49942;SDS011;36011;53.362;58.948;2022-12-07T14:43:30;113.78;;;41.97;;
49942;SDS011;36011;53.362;58.948;2022-12-07T14:46:31;108.10;;;40.15;;
49942;SDS011;36011;53.362;58.948;2022-12-07T14:49:35;109.88;;;37.30;;
49942;SDS011;36011;53.362;58.948;2022-12-07T14:52:36;91.93;;;33.30;;
49942;SDS011;36011;53.362;58.948;2022-12-07T14:55:37;78.28;;;30.05;;
49942;SDS011;36011;53.362;58.948;2022-12-07T14:58:41;68.95;;;26.02;;
49942;SDS011;36011;53.362;58.948;2022-12-07T15:01:45;74.93;;;28.27;;
49942;SDS011;36011;53.362;58.948;2022-12-07T15:04:46;76.20;;;28.67;;
49942;SDS011;36011;53.362;58.948;2022-12-07T15:07:51;128.95;;;45.40;;
49942;SDS011;36011;53.362;58.948;2022-12-07T15:10:52;106.85;;;42.58;;
49942;SDS011;36011;53.362;58.948;2022-12-07T15:13:56;205.95;;;76.72;;
49942;SDS011;36011;53.362;58.948;2022-12-07T15:17:11;207.10;;;80.85;;
49942;SDS011;36011;53.362;58.948;2022-12-07T15:20:17;179.52;;;66.30;;
49942;SDS011;36011;53.362;58.948;2022-12-07T15:23:21;178.52;;;65.85;;
49942;SDS011;36011;53.362;58.948;2022-12-07T15:26:23;172.23;;;64.40;;
49942;SDS011;36011;53.362;58.948;2022-12-07T15:29:33;167.32;;;65.65;;
49942;SDS011;36011;53.362;58.948;2022-12-07T15:32:34;170.57;;;64.80;;
49942;SDS011;36011;53.362;58.948;2022-12-07T15:35:39;133.40;;;54.80;;
49942;SDS011;36011;53.362;58.948;2022-12-07T15:38:47;112.85;;;48.88;;
49942;SDS011;36011;53.362;58.948;2022-12-07T15:41:51;104.32;;;42.95;;
49942;SDS011;36011;53.362;58.948;2022-12-07T15:44:52;126.65;;;45.90;;
49942;SDS011;36011;53.362;58.948;2022-12-07T15:48:06;68.07;;;28.45;;
49942;SDS011;36011;53.362;58.948;2022-12-07T15:51:13;81.88;;;31.88;;
49942;SDS011;36011;53.362;58.948;2022-12-07T15:54:25;75.93;;;31.48;;
49942;SDS011;36011;53.362;58.948;2022-12-07T15:57:30;94.82;;;34.22;;
49942;SDS011;36011;53.362;58.948;2022-12-07T16:00:37;98.53;;;38.00;;
49942;SDS011;36011;53.362;58.948;2022-12-07T16:03:44;91.78;;;39.22;;
49942;SDS011;36011;53.362;58.948;2022-12-07T16:06:48;97.20;;;39.15;;
49942;SDS011;36011;53.362;58.948;2022-12-07T16:09:53;87.78;;;38.88;;
49942;SDS011;36011;53.362;58.948;2022-12-07T16:12:55;95.68;;;35.63;;
49942;SDS011;36011;53.362;58.948;2022-12-07T16:16:05;87.32;;;36.15;;
49942;SDS011;36011;53.362;58.948;2022-12-07T16:19:08;82.65;;;34.78;;
49942;SDS011;36011;53.362;58.948;2022-12-07T16:22:12;109.28;;;42.22;;
49942;SDS011;36011;53.362;58.948;2022-12-07T16:25:15;88.75;;;41.28;;
49942;SDS011;36011;53.362;58.948;2022-12-07T16:28:19;103.75;;;40.53;;
49942;SDS011;36011;53.362;58.948;2022-12-07T16:31:27;87.45;;;31.83;;
49942;SDS011;36011;53.362;58.948;2022-12-07T16:34:33;112.57;;;41.22;;
49942;SDS011;36011;53.362;58.948;2022-12-07T16:37:37;116.22;;;45.83;;
49942;SDS011;36011;53.362;58.948;2022-12-07T16:40:42;94.97;;;38.33;;
49942;SDS011;36011;53.362;58.948;2022-12-07T16:43:44;96.70;;;39.08;;
49942;SDS011;36011;53.362;58.948;2022-12-07T16:46:48;79.63;;;33.13;;
49942;SDS011;36011;53.362;58.948;2022-12-07T16:49:49;84.20;;;33.47;;
49942;SDS011;36011;53.362;58.948;2022-12-07T16:52:51;69.53;;;32.20;;
49942;SDS011;36011;53.362;58.948;2022-12-07T16:55:53;85.35;;;32.60;;
49942;SDS011;36011;53.362;58.948;2022-12-07T16:58:59;69.80;;;29.27;;
49942;SDS011;36011;53.362;58.948;2022-12-07T17:02:02;75.13;;;27.58;;
49942;SDS011;36011;53.362;58.948;2022-12-07T17:05:04;73.00;;;30.67;;
49942;SDS011;36011;53.362;58.948;2022-12-07T17:08:11;80.18;;;32.95;;
49942;SDS011;36011;53.362;58.948;2022-12-07T17:11:20;69.13;;;30.27;;
49942;SDS011;36011;53.362;58.948;2022-12-07T17:14:24;90.68;;;31.38;;
49942;SDS011;36011;53.362;58.948;2022-12-07T17:17:44;65.85;;;31.95;;
49942;SDS011;36011;53.362;58.948;2022-12-07T17:20:49;90.80;;;30.27;;
49942;SDS011;36011;53.362;58.948;2022-12-07T17:23:53;81.50;;;33.20;;
49942;SDS011;36011;53.362;58.948;2022-12-07T17:27:00;95.18;;;39.67;;
49942;SDS011;36011;53.362;58.948;2022-12-07T17:30:04;102.20;;;42.40;;
49942;SDS011;36011;53.362;58.948;2022-12-07T17:33:06;103.40;;;41.00;;
49942;SDS011;36011;53.362;58.948;2022-12-07T17:36:09;112.05;;;46.50;;
49942;SDS011;36011;53.362;58.948;2022-12-07T17:39:24;189.32;;;68.30;;
49942;SDS011;36011;53.362;58.948;2022-12-07T17:42:30;179.10;;;64.90;;
49942;SDS011;36011;53.362;58.948;2022-12-07T17:45:37;140.55;;;56.55;;
49942;SDS011;36011;53.362;58.948;2022-12-07T17:48:38;121.50;;;47.13;;
49942;SDS011;36011;53.362;58.948;2022-12-07T17:51:39;112.22;;;45.05;;
49942;SDS011;36011;53.362;58.948;2022-12-07T17:55:02;92.60;;;40.10;;
49942;SDS011;36011;53.362;58.948;2022-12-07T17:58:04;105.35;;;42.10;;
49942;SDS011;36011;53.362;58.948;2022-12-07T18:01:09;106.68;;;42.03;;
49942;SDS011;36011;53.362;58.948;2022-12-07T18:04:13;108.47;;;43.03;;
49942;SDS011;36011;53.362;58.948;2022-12-07T18:07:14;104.32;;;45.03;;
49942;SDS011;36011;53.362;58.948;2022-12-07T18:10:18;98.40;;;39.03;;
49942;SDS011;36011;53.362;58.948;2022-12-07T18:13:19;97.30;;;38.13;;
49942;SDS011;36011;53.362;58.948;2022-12-07T18:16:36;84.47;;;33.92;;
49942;SDS011;36011;53.362;58.948;2022-12-07T18:19:37;89.47;;;37.13;;
49942;SDS011;36011;53.362;58.948;2022-12-07T18:22:41;101.25;;;40.28;;
49942;SDS011;36011;53.362;58.948;2022-12-07T18:25:48;104.00;;;39.78;;
49942;SDS011;36011;53.362;58.948;2022-12-07T18:28:51;86.28;;;37.13;;
49942;SDS011;36011;53.362;58.948;2022-12-07T18:31:57;100.70;;;38.17;;
49942;SDS011;36011;53.362;58.948;2022-12-07T18:34:58;105.18;;;40.50;;
49942;SDS011;36011;53.362;58.948;2022-12-07T18:38:00;83.85;;;33.13;;
49942;SDS011;36011;53.362;58.948;2022-12-07T18:41:01;97.65;;;38.78;;
49942;SDS011;36011;53.362;58.948;2022-12-07T18:44:11;86.35;;;35.13;;
49942;SDS011;36011;53.362;58.948;2022-12-07T18:47:16;102.22;;;39.28;;
49942;SDS011;36011;53.362;58.948;2022-12-07T18:50:18;95.47;;;38.60;;
49942;SDS011;36011;53.362;58.948;2022-12-07T18:53:19;92.15;;;35.72;;
49942;SDS011;36011;53.362;58.948;2022-12-07T18:56:23;93.85;;;33.58;;
49942;SDS011;36011;53.362;58.948;2022-12-07T18:59:28;91.35;;;31.30;;
49942;SDS011;36011;53.362;58.948;2022-12-07T19:02:50;81.93;;;33.15;;
49942;SDS011;36011;53.362;58.948;2022-12-07T19:05:53;81.35;;;29.52;;
49942;SDS011;36011;53.362;58.948;2022-12-07T19:08:57;60.67;;;22.60;;
49942;SDS011;36011;53.362;58.948;2022-12-07T19:12:03;68.38;;;26.60;;
49942;SDS011;36011;53.362;58.948;2022-12-07T19:15:07;61.25;;;25.33;;
49942;SDS011;36011;53.362;58.948;2022-12-07T19:18:11;51.53;;;21.38;;
49942;SDS011;36011;53.362;58.948;2022-12-07T19:21:15;72.30;;;27.35;;
49942;SDS011;36011;53.362;58.948;2022-12-07T19:24:17;53.03;;;22.80;;
49942;SDS011;36011;53.362;58.948;2022-12-07T19:27:22;56.95;;;24.40;;
49942;SDS011;36011;53.362;58.948;2022-12-07T19:30:24;59.20;;;22.75;;
49942;SDS011;36011;53.362;58.948;2022-12-07T19:33:25;60.47;;;23.50;;
49942;SDS011;36011;53.362;58.948;2022-12-07T19:36:28;65.93;;;22.95;;
49942;SDS011;36011;53.362;58.948;2022-12-07T19:39:32;56.15;;;21.70;;
49942;SDS011;36011;53.362;58.948;2022-12-07T19:42:34;54.83;;;23.98;;
49942;SDS011;36011;53.362;58.948;2022-12-07T19:45:35;47.25;;;22.35;;
49942;SDS011;36011;53.362;58.948;2022-12-07T19:48:39;48.80;;;19.13;;
49942;SDS011;36011;53.362;58.948;2022-12-07T19:51:41;39.97;;;19.60;;
49942;SDS011;36011;53.362;58.948;2022-12-07T19:54:45;49.47;;;22.00;;
49942;SDS011;36011;53.362;58.948;2022-12-07T19:57:47;50.50;;;20.45;;
49942;SDS011;36011;53.362;58.948;2022-12-07T20:00:51;47.65;;;19.67;;
49942;SDS011;36011;53.362;58.948;2022-12-07T20:03:53;49.73;;;20.70;;